Time;durP1;ratioP1;P1;durP2;ratioP2;P2;SDS_P1;SDS_P2;PMS_P1;PMS_P2;Temp;Humidity;BMP_temperature;BMP_pressure;BME280_temperature;BME280_humidity;BME280_pressure;Samples;Min_cycle;Max_cycle;Signal;HPM_P1;HPM_P2
2023/04/10 00:01:43;;;;;;;56.65;30.02;;;6.30;99.90;;;;;;5008231;28;20045;-72
2023/04/10 00:04:09;;;;;;;53.85;30.00;;;6.20;99.90;;;;;;5006070;28;20053;-71
2023/04/10 00:06:34;;;;;;;53.17;29.63;;;6.20;99.90;;;;;;5004570;28;20040;-72
2023/04/10 00:09:00;;;;;;;57.80;32.20;;;6.20;99.90;;;;;;5022106;28;20037;-71
2023/04/10 00:11:26;;;;;;;57.08;31.13;;;6.10;99.90;;;;;;4996976;28;20088;-71
2023/04/10 00:13:52;;;;;;;57.10;33.00;;;6.10;99.90;;;;;;5010841;28;20049;-71
2023/04/10 00:16:18;;;;;;;62.17;32.38;;;6.10;99.90;;;;;;5008933;28;20120;-71
2023/04/10 00:18:43;;;;;;;59.80;33.50;;;6.10;99.90;;;;;;5008027;28;20545;-71
2023/04/10 00:21:09;;;;;;;61.65;34.55;;;6.00;99.90;;;;;;5018699;28;20049;-71
2023/04/10 00:23:35;;;;;;;60.70;33.20;;;6.00;99.90;;;;;;5007686;28;20492;-71
2023/04/10 00:26:01;;;;;;;60.45;33.22;;;6.00;99.90;;;;;;4995874;28;20037;-72
2023/04/10 00:28:26;;;;;;;63.28;33.15;;;6.00;99.90;;;;;;5013516;28;20048;-72
2023/04/10 00:30:52;;;;;;;57.72;33.03;;;5.90;99.90;;;;;;5005019;28;20770;-71
2023/04/10 00:33:18;;;;;;;61.22;34.45;;;5.90;99.90;;;;;;4992428;28;20041;-71
2023/04/10 00:35:43;;;;;;;61.53;33.38;;;5.80;99.90;;;;;;5006980;28;20520;-71
2023/04/10 00:38:09;;;;;;;63.85;34.22;;;5.80;99.90;;;;;;5013221;28;20045;-72
2023/04/10 00:40:35;;;;;;;64.78;35.20;;;5.70;99.90;;;;;;5015252;28;20045;-72
2023/04/10 00:43:00;;;;;;;67.63;35.92;;;5.80;99.90;;;;;;5009662;28;20034;-71
2023/04/10 00:45:26;;;;;;;63.38;35.20;;;5.80;99.90;;;;;;4991258;28;20563;-72
2023/04/10 00:47:52;;;;;;;67.22;36.35;;;5.80;99.90;;;;;;5008835;28;20112;-72
2023/04/10 00:50:20;;;;;;;62.95;35.78;;;5.80;99.90;;;;;;5007259;28;20072;-72
2023/04/10 00:52:45;;;;;;;66.18;35.72;;;5.80;99.90;;;;;;4990160;28;20037;-72
2023/04/10 00:55:11;;;;;;;67.20;36.22;;;5.80;99.90;;;;;;5012185;28;20493;-72
2023/04/10 00:57:37;;;;;;;70.60;36.80;;;5.80;99.90;;;;;;5015745;28;20152;-71
2023/04/10 01:00:04;;;;;;;64.63;37.20;;;5.80;99.90;;;;;;5014300;28;20639;-72
2023/04/10 01:02:31;;;;;;;67.32;36.55;;;5.80;99.90;;;;;;5010500;28;20057;-72
2023/04/10 01:04:57;;;;;;;64.80;35.10;;;5.70;99.90;;;;;;5027314;28;20042;-72
2023/04/10 01:07:39;;;;;;;69.57;37.38;;;5.60;99.90;;;;;;5014872;28;20037;-72
2023/04/10 01:10:05;;;;;;;69.05;37.67;;;5.70;99.90;;;;;;5010458;28;20393;-71
2023/04/10 01:12:42;;;;;;;69.88;38.15;;;5.60;99.90;;;;;;4998645;28;20037;-72
2023/04/10 01:15:12;;;;;;;68.88;37.63;;;5.60;99.90;;;;;;5012918;28;20140;-72
2023/04/10 01:18:03;;;;;;;62.80;37.23;;;5.60;99.90;;;;;;5011495;28;20382;-73
2023/04/10 01:20:33;;;;;;;70.85;38.63;;;5.60;99.90;;;;;;4995420;28;20096;-72
2023/04/10 01:23:28;;;;;;;67.43;38.55;;;5.60;99.90;;;;;;5006236;28;20038;-72
2023/04/10 01:26:03;;;;;;;68.50;38.03;;;5.50;99.90;;;;;;5007671;28;20041;-72
2023/04/10 01:29:00;;;;;;;66.55;38.67;;;5.50;99.90;;;;;;5009265;28;20407;-72
2023/04/10 01:31:30;;;;;;;69.18;39.58;;;5.50;99.90;;;;;;5005560;28;20044;-72
2023/04/10 01:34:03;;;;;;;73.43;40.93;;;5.40;99.90;;;;;;5002867;28;20064;-71
2023/04/10 01:37:02;;;;;;;70.45;40.28;;;5.40;99.90;;;;;;5005227;28;20296;-72
2023/04/10 01:39:29;;;;;;;70.32;39.33;;;5.40;99.90;;;;;;5005117;28;20064;-71
2023/04/10 01:41:56;;;;;;;72.78;40.60;;;5.40;99.90;;;;;;4994509;28;20499;-71
2023/04/10 01:44:26;;;;;;;72.57;39.45;;;5.40;99.90;;;;;;5023758;28;20099;-72
2023/04/10 01:46:54;;;;;;;77.15;40.72;;;5.40;99.90;;;;;;5008381;28;20046;-71
2023/04/10 01:49:22;;;;;;;78.03;40.17;;;5.30;99.90;;;;;;4989460;28;20504;-71
2023/04/10 01:51:49;;;;;;;69.75;40.03;;;5.30;99.90;;;;;;5004787;28;20048;-72
2023/04/10 01:54:16;;;;;;;74.13;39.83;;;5.40;99.90;;;;;;5001821;28;20045;-72
2023/04/10 01:56:42;;;;;;;76.40;40.38;;;5.40;99.90;;;;;;5003824;28;20053;-72
2023/04/10 01:59:07;;;;;;;70.85;41.42;;;5.40;99.90;;;;;;5010525;28;20053;-72
2023/04/10 02:01:33;;;;;;;69.90;39.80;;;5.40;99.90;;;;;;5006941;28;20123;-72
2023/04/10 02:03:59;;;;;;;79.88;40.75;;;5.40;99.90;;;;;;5008754;28;20114;-70
2023/04/10 02:06:43;;;;;;;78.03;41.58;;;5.40;99.90;;;;;;5020227;28;20041;-72
2023/04/10 02:09:26;;;;;;;73.78;39.30;;;5.40;99.90;;;;;;5006312;28;20373;-72
2023/04/10 02:12:04;;;;;;;73.65;40.53;;;5.40;99.90;;;;;;5006352;28;20034;-69
2023/04/10 02:14:32;;;;;;;75.20;40.88;;;5.40;99.90;;;;;;5006352;28;20086;-72
2023/04/10 02:17:00;;;;;;;72.07;39.53;;;5.40;99.90;;;;;;5007333;28;20095;-71
2023/04/10 02:19:27;;;;;;;71.32;39.53;;;5.40;99.90;;;;;;5007513;28;20093;-72
2023/04/10 02:21:54;;;;;;;68.80;40.03;;;5.40;99.90;;;;;;4986725;28;20094;-72
2023/04/10 02:24:20;;;;;;;74.57;40.60;;;5.40;99.90;;;;;;5020111;28;20068;-72
2023/04/10 02:26:52;;;;;;;77.38;41.28;;;5.40;99.90;;;;;;5005541;28;20042;-72
2023/04/10 02:29:18;;;;;;;75.50;41.17;;;5.40;99.90;;;;;;5002607;28;20046;-71
2023/04/10 02:31:44;;;;;;;69.95;39.53;;;5.40;99.90;;;;;;5007811;28;20048;-71
2023/04/10 02:34:11;;;;;;;71.15;38.35;;;5.40;99.90;;;;;;5003420;28;20041;-70
2023/04/10 02:36:38;;;;;;;71.93;40.28;;;5.30;99.90;;;;;;5007921;28;20041;-72
2023/04/10 02:39:04;;;;;;;67.60;38.17;;;5.30;99.90;;;;;;5005689;28;20041;-72
2023/04/10 02:41:30;;;;;;;71.10;38.25;;;5.30;99.90;;;;;;5006205;28;20116;-72
2023/04/10 02:43:56;;;;;;;69.90;39.33;;;5.30;99.90;;;;;;5003873;28;20034;-71
2023/04/10 02:46:21;;;;;;;70.38;39.50;;;5.30;99.90;;;;;;5004916;28;20037;-72
2023/04/10 02:48:47;;;;;;;72.90;38.53;;;5.40;99.90;;;;;;5003968;28;20052;-71
2023/04/10 02:51:13;;;;;;;69.20;38.70;;;5.30;99.90;;;;;;5004837;28;20381;-72
2023/04/10 02:53:39;;;;;;;70.82;38.95;;;5.30;99.90;;;;;;5009108;28;20069;-71
2023/04/10 02:56:08;;;;;;;69.90;38.60;;;5.30;99.90;;;;;;5027682;28;20061;-71
2023/04/10 02:58:34;;;;;;;66.88;37.80;;;5.30;99.90;;;;;;5012293;28;20045;-70
2023/04/10 03:01:00;;;;;;;70.03;39.95;;;5.40;99.90;;;;;;4993223;28;20049;-72
2023/04/10 03:03:26;;;;;;;69.25;38.20;;;5.40;99.90;;;;;;5009865;28;20409;-72
2023/04/10 03:05:52;;;;;;;67.45;36.33;;;5.40;99.90;;;;;;5009923;28;20033;-72
2023/04/10 03:08:18;;;;;;;70.75;37.50;;;5.30;99.90;;;;;;5011805;28;20037;-71
2023/04/10 03:10:45;;;;;;;65.60;37.28;;;5.30;99.90;;;;;;5011810;28;20474;-71
2023/04/10 03:13:11;;;;;;;68.10;37.17;;;5.30;99.90;;;;;;5012526;28;20045;-72
2023/04/10 03:15:37;;;;;;;65.68;36.33;;;5.30;99.90;;;;;;4996864;28;20037;-72
2023/04/10 03:18:04;;;;;;;71.82;37.08;;;5.30;99.90;;;;;;4992940;28;20037;-72
2023/04/10 03:20:31;;;;;;;69.20;37.83;;;5.30;99.90;;;;;;5007775;28;20160;-71
2023/04/10 03:22:56;;;;;;;65.28;37.20;;;5.30;99.90;;;;;;5008224;28;20048;-71
2023/04/10 03:25:22;;;;;;;68.72;38.50;;;5.30;99.90;;;;;;5010660;28;20471;-72
2023/04/10 03:27:47;;;;;;;69.35;37.28;;;5.20;99.90;;;;;;5003980;28;20832;-71
2023/04/10 03:30:13;;;;;;;63.58;36.25;;;5.20;99.90;;;;;;5008303;28;20052;-71
2023/04/10 03:32:41;;;;;;;66.38;36.78;;;5.20;99.90;;;;;;5009632;28;20099;-71
2023/04/10 03:35:07;;;;;;;68.60;36.35;;;5.10;99.90;;;;;;5006245;28;20045;-70
2023/04/10 03:37:32;;;;;;;65.57;36.90;;;5.20;99.90;;;;;;5007262;28;20052;-71
2023/04/10 03:39:58;;;;;;;66.82;38.22;;;5.20;99.90;;;;;;5027616;28;20105;-71
2023/04/10 03:42:23;;;;;;;67.53;36.60;;;5.20;99.90;;;;;;5009531;28;20140;-71
2023/04/10 03:44:49;;;;;;;63.65;37.40;;;5.20;99.90;;;;;;5009321;28;20041;-71
2023/04/10 03:47:15;;;;;;;65.07;38.03;;;5.20;99.90;;;;;;5010152;28;20076;-71
2023/04/10 03:49:40;;;;;;;71.18;37.80;;;5.20;99.90;;;;;;5006304;28;20075;-71
2023/04/10 03:52:06;;;;;;;72.28;39.70;;;5.20;99.90;;;;;;4991478;28;20045;-71
2023/04/10 03:54:31;;;;;;;72.53;38.13;;;5.20;99.90;;;;;;5012339;28;20041;-72
2023/04/10 03:56:57;;;;;;;73.80;39.30;;;5.10;99.90;;;;;;5011241;28;20628;-71
2023/04/10 03:59:22;;;;;;;73.20;39.97;;;5.10;99.90;;;;;;5008789;28;20493;-72
2023/04/10 04:01:48;;;;;;;68.25;38.67;;;5.10;99.90;;;;;;4992354;28;20040;-71
2023/04/10 04:04:14;;;;;;;68.38;38.75;;;5.10;99.90;;;;;;5007837;28;20049;-70
2023/04/10 04:06:39;;;;;;;74.38;39.13;;;5.10;99.90;;;;;;4999881;28;20037;-71
2023/04/10 04:09:05;;;;;;;69.82;38.83;;;5.10;99.90;;;;;;5009252;28;20059;-72
2023/04/10 04:11:30;;;;;;;70.43;39.88;;;5.20;99.90;;;;;;5012272;28;20045;-71
2023/04/10 04:13:56;;;;;;;73.60;40.58;;;5.20;99.90;;;;;;5008610;28;20045;-70
2023/04/10 04:16:22;;;;;;;73.28;39.28;;;5.20;99.90;;;;;;5007239;28;20049;-71
2023/04/10 04:18:47;;;;;;;69.75;38.20;;;5.30;99.90;;;;;;4995531;28;20041;-70
2023/04/10 04:21:13;;;;;;;73.82;39.42;;;5.30;99.90;;;;;;4991721;28;20037;-70
2023/04/10 04:23:38;;;;;;;76.13;40.53;;;5.30;99.90;;;;;;5009675;28;20096;-71
2023/04/10 04:26:04;;;;;;;70.80;40.55;;;5.30;99.90;;;;;;5014881;28;20043;-71
2023/04/10 04:28:30;;;;;;;76.88;40.92;;;5.30;99.90;;;;;;5013751;28;20041;-71
2023/04/10 04:30:55;;;;;;;73.05;39.30;;;5.40;99.90;;;;;;5012099;28;20034;-72
2023/04/10 04:33:21;;;;;;;75.35;40.75;;;5.30;99.90;;;;;;5013907;28;20037;-71
2023/04/10 04:35:46;;;;;;;70.22;40.47;;;5.40;99.90;;;;;;5010447;28;20045;-71
2023/04/10 04:38:12;;;;;;;76.03;41.65;;;5.40;99.90;;;;;;5008198;28;20065;-71
2023/04/10 04:40:37;;;;;;;74.65;41.80;;;5.30;99.90;;;;;;5012280;28;20125;-72
2023/04/10 04:43:03;;;;;;;72.10;40.85;;;5.30;99.90;;;;;;4997518;28;20079;-70
2023/04/10 04:45:29;;;;;;;72.28;40.85;;;5.30;99.90;;;;;;5013672;28;20061;-69
2023/04/10 04:47:55;;;;;;;79.85;42.85;;;5.30;99.90;;;;;;5010071;28;20064;-71
2023/04/10 04:50:21;;;;;;;71.57;37.30;;;5.30;99.90;;;;;;5010554;28;20659;-70
2023/04/10 04:52:46;;;;;;;83.18;44.10;;;5.30;99.90;;;;;;5010594;28;20040;-71
2023/04/10 04:55:12;;;;;;;74.72;42.67;;;5.30;99.90;;;;;;4996807;28;20053;-71
2023/04/10 04:57:38;;;;;;;77.50;42.75;;;5.20;99.90;;;;;;5022425;28;20156;-71
2023/04/10 05:00:04;;;;;;;81.55;43.63;;;5.20;99.90;;;;;;5013056;28;20045;-72
2023/04/10 05:02:29;;;;;;;78.90;42.50;;;5.20;99.90;;;;;;4997007;28;20045;-71
2023/04/10 05:04:55;;;;;;;76.93;42.60;;;5.20;99.90;;;;;;5021474;28;20034;-71
2023/04/10 05:07:21;;;;;;;80.35;42.70;;;5.20;99.90;;;;;;5012226;28;20128;-72
2023/04/10 05:09:46;;;;;;;82.07;44.30;;;5.20;99.90;;;;;;5011166;28;20048;-71
2023/04/10 05:12:12;;;;;;;74.32;41.63;;;5.30;99.90;;;;;;5019316;28;20054;-71
2023/04/10 05:14:37;;;;;;;81.22;44.53;;;5.30;99.90;;;;;;5014021;28;20044;-74
2023/04/10 05:17:03;;;;;;;81.47;43.50;;;5.30;99.90;;;;;;5014832;28;20128;-72
2023/04/10 05:19:28;;;;;;;76.63;42.22;;;5.40;99.90;;;;;;4995954;28;20044;-70
2023/04/10 05:21:54;;;;;;;82.85;43.60;;;5.40;99.90;;;;;;5010446;28;20100;-72
2023/04/10 05:24:20;;;;;;;84.95;44.33;;;5.40;99.90;;;;;;5008957;28;20045;-71
2023/04/10 05:26:46;;;;;;;88.35;45.10;;;5.50;99.90;;;;;;5008523;28;20413;-71
2023/04/10 05:29:11;;;;;;;88.45;46.28;;;5.50;99.90;;;;;;5006675;28;20542;-72
2023/04/10 05:31:37;;;;;;;78.70;44.40;;;5.50;99.90;;;;;;5004616;28;20057;-71
2023/04/10 05:34:03;;;;;;;78.53;43.05;;;5.60;99.90;;;;;;4990264;28;20107;-71
2023/04/10 05:36:28;;;;;;;82.18;43.85;;;5.60;99.90;;;;;;5007875;28;20042;-71
2023/04/10 05:38:54;;;;;;;80.10;44.08;;;5.60;99.90;;;;;;5015037;28;20103;-70
2023/04/10 05:41:20;;;;;;;84.40;46.00;;;5.70;99.90;;;;;;5021914;28;20052;-72
2023/04/10 05:43:46;;;;;;;85.85;46.20;;;5.70;99.90;;;;;;4999105;28;20783;-71
2023/04/10 05:46:11;;;;;;;90.43;46.38;;;5.80;99.90;;;;;;5009628;28;20072;-71
2023/04/10 05:48:37;;;;;;;77.53;44.17;;;5.80;99.90;;;;;;4997106;28;20033;-71
2023/04/10 05:51:03;;;;;;;89.07;46.33;;;5.90;99.90;;;;;;5000868;28;20365;-72
2023/04/10 05:53:31;;;;;;;85.78;46.20;;;5.90;99.90;;;;;;4994732;28;20091;-70
2023/04/10 05:55:58;;;;;;;80.55;44.85;;;6.00;99.90;;;;;;5011524;28;20057;-72
2023/04/10 05:58:25;;;;;;;84.50;46.55;;;6.00;99.90;;;;;;5004632;28;20125;-71
2023/04/10 06:00:51;;;;;;;81.65;45.88;;;6.10;99.90;;;;;;4995246;28;20072;-72
2023/04/10 06:03:18;;;;;;;87.38;45.28;;;6.20;99.90;;;;;;5002464;28;20042;-71
2023/04/10 06:05:44;;;;;;;90.00;46.45;;;6.20;99.90;;;;;;4998142;28;20041;-71
2023/04/10 06:08:10;;;;;;;85.60;46.92;;;6.30;99.90;;;;;;5003144;28;20045;-71
2023/04/10 06:10:36;;;;;;;87.53;46.70;;;6.40;99.90;;;;;;5002912;28;20096;-71
2023/04/10 06:13:01;;;;;;;87.78;45.92;;;6.40;99.90;;;;;;5008517;28;20082;-74
2023/04/10 06:15:27;;;;;;;83.18;46.53;;;6.60;99.90;;;;;;5000018;28;20448;-72
2023/04/10 06:17:53;;;;;;;82.93;45.65;;;6.60;99.90;;;;;;5005436;28;20088;-71
2023/04/10 06:20:19;;;;;;;83.18;46.30;;;6.80;99.90;;;;;;5006545;28;20037;-72
2023/04/10 06:22:45;;;;;;;85.70;45.38;;;7.00;99.90;;;;;;5002989;28;20420;-71
2023/04/10 06:25:10;;;;;;;84.15;47.55;;;7.20;99.90;;;;;;5013420;28;20037;-69
2023/04/10 06:27:36;;;;;;;89.97;46.47;;;7.40;99.90;;;;;;4995690;28;20033;-71
2023/04/10 06:30:02;;;;;;;84.78;47.17;;;7.60;99.90;;;;;;4993279;28;20037;-72
2023/04/10 06:32:27;;;;;;;84.78;46.58;;;7.70;99.90;;;;;;5006441;28;20127;-71
2023/04/10 06:34:53;;;;;;;87.07;48.22;;;7.90;99.90;;;;;;5001281;28;20045;-71
2023/04/10 06:37:18;;;;;;;89.57;47.80;;;8.00;99.90;;;;;;5005344;28;20095;-71
2023/04/10 06:39:44;;;;;;;85.03;47.35;;;8.20;99.90;;;;;;4993649;28;20810;-71
2023/04/10 06:42:10;;;;;;;84.00;46.85;;;8.40;99.90;;;;;;5000083;28;20389;-71
2023/04/10 06:44:35;;;;;;;83.65;45.88;;;8.50;99.90;;;;;;5011158;28;20076;-70
2023/04/10 06:47:01;;;;;;;80.65;45.60;;;8.70;99.90;;;;;;5004315;28;20081;-71
2023/04/10 06:49:26;;;;;;;82.07;46.08;;;8.70;99.90;;;;;;5003779;28;20391;-70
2023/04/10 06:51:52;;;;;;;80.68;46.45;;;8.80;99.90;;;;;;5006240;28;20037;-71
2023/04/10 06:54:17;;;;;;;77.47;44.90;;;8.80;99.90;;;;;;4997821;28;20124;-71
2023/04/10 06:56:43;;;;;;;78.75;45.90;;;8.90;99.90;;;;;;4999428;28;20089;-72
2023/04/10 06:59:09;;;;;;;77.00;43.67;;;9.00;99.90;;;;;;5005522;28;20049;-72
2023/04/10 07:01:34;;;;;;;74.10;42.65;;;9.10;99.90;;;;;;4993270;28;20160;-72
2023/04/10 07:04:00;;;;;;;75.43;41.08;;;9.20;99.90;;;;;;4997966;28;20045;-70
2023/04/10 07:06:26;;;;;;;72.07;41.95;;;9.30;99.90;;;;;;5000149;28;20041;-71
2023/04/10 07:08:51;;;;;;;71.90;40.85;;;9.40;99.90;;;;;;5001130;28;20037;-70
2023/04/10 07:11:17;;;;;;;85.20;39.10;;;9.40;99.90;;;;;;5019481;28;20527;-71
2023/04/10 07:13:42;;;;;;;68.07;40.08;;;9.40;99.90;;;;;;5004908;28;20523;-70
2023/04/10 07:16:08;;;;;;;70.05;39.22;;;9.40;99.90;;;;;;4996083;28;20064;-71
2023/04/10 07:18:37;;;;;;;68.50;39.03;;;9.40;99.90;;;;;;5006681;28;20041;-71
2023/04/10 07:21:10;;;;;;;69.10;38.97;;;9.40;99.90;;;;;;5004167;28;20037;-71
2023/04/10 07:23:36;;;;;;;63.78;37.40;;;9.40;99.90;;;;;;5002695;28;20037;-71
2023/04/10 07:26:01;;;;;;;65.30;36.25;;;9.40;99.90;;;;;;5004768;28;20045;-71
2023/04/10 07:28:27;;;;;;;60.53;35.20;;;9.50;99.90;;;;;;5011046;28;20030;-71
2023/04/10 07:30:52;;;;;;;62.80;33.80;;;9.70;99.90;;;;;;5002868;28;20030;-70
2023/04/10 07:33:18;;;;;;;58.38;33.97;;;9.80;99.70;;;;;;4998298;28;20069;-71
2023/04/10 07:35:43;;;;;;;58.63;33.08;;;9.90;98.90;;;;;;5018764;28;20037;-70
2023/04/10 07:38:10;;;;;;;60.42;34.20;;;10.10;98.00;;;;;;5001831;28;20050;-70
2023/04/10 07:40:36;;;;;;;56.85;32.03;;;10.20;97.50;;;;;;5004949;28;20059;-69
2023/04/10 07:43:01;;;;;;;52.88;32.17;;;10.30;96.90;;;;;;5005531;28;20050;-71
2023/04/10 07:45:27;;;;;;;54.90;31.25;;;10.40;96.40;;;;;;5005764;28;20052;-70
2023/04/10 07:47:53;;;;;;;53.58;30.50;;;10.60;95.50;;;;;;5009169;28;20362;-70
2023/04/10 07:50:18;;;;;;;52.30;30.25;;;10.80;95.20;;;;;;5009096;28;20374;-70
2023/04/10 07:52:44;;;;;;;52.42;30.23;;;11.20;94.10;;;;;;5007093;28;20042;-70
2023/04/10 07:55:09;;;;;;;52.75;29.98;;;11.60;93.70;;;;;;5002173;28;20046;-70
2023/04/10 07:57:35;;;;;;;50.30;28.85;;;11.90;91.50;;;;;;5014150;28;20045;-70
2023/04/10 08:00:01;;;;;;;47.85;26.30;;;12.30;90.30;;;;;;5009103;28;20049;-69
2023/04/10 08:02:27;;;;;;;42.17;26.10;;;12.40;87.80;;;;;;5013850;28;20038;-70
2023/04/10 08:04:52;;;;;;;45.03;24.55;;;12.50;78.30;;;;;;5007835;28;20412;-72
2023/04/10 08:07:21;;;;;;;42.90;24.83;;;12.60;77.50;;;;;;5012326;28;20064;-70
2023/04/10 08:09:46;;;;;;;42.47;25.23;;;12.70;77.10;;;;;;5005701;28;20073;-71
2023/04/10 08:12:12;;;;;;;40.60;25.05;;;12.70;76.60;;;;;;4990058;28;20075;-68
2023/04/10 08:14:37;;;;;;;40.80;24.48;;;12.90;74.00;;;;;;5014818;28;20041;-69
2023/04/10 08:17:03;;;;;;;40.72;22.55;;;12.90;71.70;;;;;;5013879;28;20045;-69
2023/04/10 08:19:28;;;;;;;52.70;22.85;;;13.00;69.70;;;;;;5013260;28;20069;-69
2023/04/10 08:21:54;;;;;;;37.47;22.55;;;13.00;66.20;;;;;;5007948;28;20034;-72
2023/04/10 08:24:21;;;;;;;35.47;21.98;;;13.00;65.00;;;;;;5022926;28;20454;-72
2023/04/10 08:26:47;;;;;;;36.83;20.77;;;13.10;64.50;;;;;;5030044;28;20040;-68
2023/04/10 08:29:13;;;;;;;37.95;20.98;;;13.20;63.70;;;;;;5008685;28;20041;-67
2023/04/10 08:31:39;;;;;;;37.40;20.88;;;13.50;63.70;;;;;;5009744;28;20033;-69
2023/04/10 08:34:04;;;;;;;39.90;20.15;;;13.90;63.90;;;;;;5013812;28;20034;-69
2023/04/10 08:36:30;;;;;;;37.33;19.98;;;14.20;61.00;;;;;;4995270;28;20111;-69
2023/04/10 08:38:56;;;;;;;40.08;20.20;;;14.20;59.80;;;;;;4993432;28;20038;-68
2023/04/10 08:41:21;;;;;;;106.57;23.25;;;14.20;57.90;;;;;;5013722;28;20048;-69
2023/04/10 08:43:48;;;;;;;33.75;19.95;;;14.40;51.90;;;;;;5007226;28;20532;-68
2023/04/10 08:46:14;;;;;;;40.63;18.95;;;14.30;53.00;;;;;;5023590;28;20045;-70
2023/04/10 08:48:51;;;;;;;37.55;19.38;;;14.50;56.30;;;;;;5010103;28;20056;-68
2023/04/10 08:51:19;;;;;;;44.40;18.27;;;14.60;54.30;;;;;;5010637;28;20496;-69
2023/04/10 08:53:47;;;;;;;31.02;18.55;;;14.40;50.50;;;;;;5030293;28;20033;-69
2023/04/10 08:56:14;;;;;;;35.13;20.70;;;14.60;55.00;;;;;;5015520;28;20046;-69
2023/04/10 08:58:41;;;;;;;43.58;21.38;;;14.90;54.40;;;;;;5013004;28;20049;-69
2023/04/10 09:01:08;;;;;;;31.30;20.23;;;15.10;51.00;;;;;;5006217;28;20038;-69
2023/04/10 09:03:34;;;;;;;35.58;20.73;;;15.40;55.00;;;;;;5008211;28;20045;-67
2023/04/10 09:06:03;;;;;;;33.88;20.63;;;15.40;54.80;;;;;;5010502;28;20041;-69
2023/04/10 09:08:29;;;;;;;36.50;20.23;;;15.20;54.20;;;;;;5012482;28;20831;-70
2023/04/10 09:10:55;;;;;;;33.03;20.05;;;14.90;51.70;;;;;;5029475;28;20280;-68
2023/04/10 09:13:35;;;;;;;30.75;18.38;;;14.70;54.70;;;;;;5012620;28;20111;-70
2023/04/10 09:16:01;;;;;;;;;;;14.70;52.20;;;;;;5029173;28;20060;-69
2023/04/10 09:18:48;;;;;;;32.05;20.13;;;14.50;49.10;;;;;;5010270;28;20288;-69
2023/04/10 09:21:21;;;;;;;34.97;20.10;;;14.90;50.60;;;;;;5028880;28;20049;-68
2023/04/10 09:23:47;;;;;;;30.02;17.98;;;14.80;51.30;;;;;;5011990;28;20037;-70
2023/04/10 09:26:28;;;;;;;35.63;19.13;;;15.10;52.70;;;;;;4995394;28;20033;-69
2023/04/10 09:29:04;;;;;;;29.45;18.38;;;15.40;49.40;;;;;;5009097;28;20060;-70
2023/04/10 09:31:35;;;;;;;30.23;18.38;;;15.90;50.10;;;;;;5026039;28;20060;-68
2023/04/10 09:34:16;;;;;;;31.83;19.08;;;15.60;49.30;;;;;;5011569;28;20033;-68
2023/04/10 09:36:54;;;;;;;28.25;17.67;;;15.90;50.80;;;;;;5009630;28;20377;-69
2023/04/10 09:39:20;;;;;;;49.55;18.73;;;15.90;50.60;;;;;;5004732;28;20048;-70
2023/04/10 09:41:55;;;;;;;35.10;19.15;;;15.60;49.40;;;;;;5012985;28;20409;-69
2023/04/10 09:44:32;;;;;;;29.05;18.05;;;15.50;50.30;;;;;;5008741;28;20049;-71
2023/04/10 09:47:20;;;;;;;28.05;16.92;;;15.50;48.00;;;;;;5011387;28;20037;-68
2023/04/10 09:49:49;;;;;;;28.48;17.33;;;15.40;48.00;;;;;;4987323;28;20041;-67
2023/04/10 09:52:22;;;;;;;24.40;16.13;;;15.20;49.50;;;;;;5007726;28;20052;-68
2023/04/10 09:54:47;;;;;;;23.50;14.75;;;15.10;48.50;;;;;;5010446;28;20045;-72
2023/04/10 09:57:19;;;;;;;25.33;15.25;;;15.20;49.00;;;;;;4995849;28;20141;-69
2023/04/10 09:59:48;;;;;;;26.25;15.60;;;15.30;49.50;;;;;;5006510;28;20065;-71
2023/04/10 10:02:16;;;;;;;23.52;15.77;;;15.30;48.50;;;;;;5011324;28;20095;-68
2023/04/10 10:04:45;;;;;;;27.63;16.17;;;15.30;49.30;;;;;;5008973;28;20041;-70
2023/04/10 10:07:11;;;;;;;22.65;15.20;;;15.20;49.00;;;;;;5008385;28;20064;-66
2023/04/10 10:09:37;;;;;;;32.10;16.23;;;15.40;50.00;;;;;;5029566;28;20037;-68
2023/04/10 10:12:03;;;;;;;24.98;15.43;;;15.40;48.90;;;;;;5022598;28;20042;-69
2023/04/10 10:14:34;;;;;;;27.15;15.18;;;15.20;49.70;;;;;;5026794;28;20038;-67
2023/04/10 10:17:06;;;;;;;21.05;14.65;;;15.60;49.70;;;;;;5028434;28;20124;-68
2023/04/10 10:19:58;;;;;;;21.15;13.75;;;15.40;47.10;;;;;;4993320;28;20041;-68
2023/04/10 10:22:27;;;;;;;19.98;11.80;;;15.60;48.10;;;;;;5005782;28;20042;-69
2023/04/10 10:24:55;;;;;;;20.23;12.50;;;15.60;48.40;;;;;;4995138;28;20042;-69
2023/04/10 10:27:22;;;;;;;16.63;11.63;;;15.50;47.70;;;;;;5010763;28;20049;-67
2023/04/10 10:29:52;;;;;;;18.00;12.30;;;15.80;48.90;;;;;;5005079;28;20040;-70
2023/04/10 10:32:19;;;;;;;16.77;10.65;;;16.00;48.90;;;;;;4991083;28;20125;-66
2023/04/10 10:34:46;;;;;;;21.65;10.32;;;16.10;47.90;;;;;;5008609;28;20042;-67
2023/04/10 10:37:12;;;;;;;13.18;9.68;;;16.20;44.00;;;;;;5013525;28;20124;-69
2023/04/10 10:40:10;;;;;;;13.73;8.75;;;16.20;44.60;;;;;;5012138;28;20112;-66
2023/04/10 10:42:59;;;;;;;13.48;9.75;;;16.20;44.20;;;;;;4985333;28;20136;-67
2023/04/10 10:45:41;;;;;;;14.93;9.05;;;16.10;44.60;;;;;;5013425;28;20084;-69
2023/04/10 10:48:07;;;;;;;14.05;9.10;;;16.20;45.60;;;;;;4997482;28;20045;-68
2023/04/10 10:50:55;;;;;;;12.55;8.85;;;16.00;44.60;;;;;;5008957;28;20045;-68
2023/04/10 10:53:31;;;;;;;13.02;8.93;;;16.30;46.10;;;;;;5011281;28;20420;-66
2023/04/10 10:55:57;;;;;;;11.57;8.15;;;16.40;44.10;;;;;;4994878;28;20054;-68
2023/04/10 10:58:45;;;;;;;13.40;8.13;;;16.10;43.80;;;;;;4997150;28;20041;-68
2023/04/10 11:01:10;;;;;;;12.80;7.85;;;16.20;45.10;;;;;;5013038;28;20033;-68
2023/04/10 11:03:36;;;;;;;12.07;7.50;;;16.10;43.80;;;;;;4998029;28;20524;-67
2023/04/10 11:06:11;;;;;;;10.27;7.38;;;16.00;44.50;;;;;;5029005;28;20041;-68
2023/04/10 11:08:48;;;;;;;9.20;6.80;;;16.00;42.60;;;;;;5012455;28;20052;-68
2023/04/10 11:11:23;;;;;;;10.88;7.18;;;15.90;43.10;;;;;;5027377;28;20030;-69
2023/04/10 11:13:51;;;;;;;9.80;7.00;;;15.80;43.20;;;;;;5012997;28;20029;-69
2023/04/10 11:16:19;;;;;;;11.60;7.45;;;16.00;45.10;;;;;;5010380;28;20041;-70
2023/04/10 11:18:47;;;;;;;17.13;8.18;;;16.00;45.30;;;;;;5012341;28;20045;-68
2023/04/10 11:21:22;;;;;;;12.30;6.65;;;15.90;43.00;;;;;;5009415;28;20041;-70
2023/04/10 11:23:57;;;;;;;9.40;6.88;;;16.00;44.40;;;;;;5001407;28;20370;-68
2023/04/10 11:26:35;;;;;;;10.18;6.53;;;15.90;44.80;;;;;;5014614;28;20378;-69
2023/04/10 11:29:16;;;;;;;9.93;6.63;;;16.00;45.80;;;;;;5011673;28;20156;-70
2023/04/10 11:31:47;;;;;;;9.38;6.65;;;16.00;44.30;;;;;;5023797;28;20065;-68
2023/04/10 11:34:14;;;;;;;10.10;6.97;;;15.70;43.80;;;;;;5012094;28;20157;-69
2023/04/10 11:36:42;;;;;;;9.52;5.47;;;16.00;45.20;;;;;;5013522;28;20095;-69
2023/04/10 11:39:20;;;;;;;8.32;5.82;;;16.10;45.20;;;;;;5009688;28;20053;-69
2023/04/10 11:41:47;;;;;;;9.73;6.85;;;16.20;44.20;;;;;;4991822;28;20052;-68
2023/04/10 11:44:15;;;;;;;8.77;6.35;;;16.10;43.40;;;;;;5010526;28;20048;-68
2023/04/10 11:46:50;;;;;;;7.75;5.82;;;16.20;44.80;;;;;;4998370;28;20495;-68
2023/04/10 11:49:24;;;;;;;9.55;5.70;;;16.20;44.40;;;;;;5010450;28;20069;-72
2023/04/10 11:51:51;;;;;;;8.30;5.18;;;16.10;43.70;;;;;;5016029;28;20584;-69
2023/04/10 11:54:21;;;;;;;7.15;5.07;;;16.20;43.80;;;;;;5013199;28;20053;-69
2023/04/10 11:57:03;;;;;;;8.82;5.55;;;16.40;44.90;;;;;;5017914;28;20421;-68
2023/04/10 11:59:30;;;;;;;8.15;4.88;;;16.60;44.70;;;;;;5015353;28;20038;-69
2023/04/10 12:02:10;;;;;;;6.80;5.18;;;16.40;44.10;;;;;;5014694;28;20132;-70
2023/04/10 12:04:36;;;;;;;7.13;4.78;;;16.40;44.90;;;;;;5011187;28;20034;-69
2023/04/10 12:07:01;;;;;;;7.65;4.75;;;16.50;44.70;;;;;;5032461;28;20092;-70
2023/04/10 12:09:27;;;;;;;5.70;4.53;;;16.50;43.50;;;;;;5016606;28;20051;-69
2023/04/10 12:11:54;;;;;;;5.93;4.07;;;16.60;43.10;;;;;;5015406;28;20202;-67
2023/04/10 12:14:21;;;;;;;5.85;3.97;;;16.80;43.80;;;;;;5015836;28;20044;-68
2023/04/10 12:16:47;;;;;;;6.68;4.40;;;16.90;42.70;;;;;;5015552;28;20041;-68
2023/04/10 12:19:15;;;;;;;6.20;4.43;;;16.90;41.30;;;;;;4997564;28;20607;-69
2023/04/10 12:21:42;;;;;;;5.85;4.30;;;17.00;42.20;;;;;;4998402;28;20037;-68
2023/04/10 12:24:07;;;;;;;6.32;4.20;;;17.30;41.70;;;;;;5013482;28;20124;-70
2023/04/10 12:26:33;;;;;;;5.30;3.47;;;17.60;42.00;;;;;;5015740;28;20120;-68
2023/04/10 12:28:59;;;;;;;7.10;3.78;;;17.90;42.40;;;;;;5014949;28;20049;-69
2023/04/10 12:31:33;;;;;;;6.97;3.97;;;18.10;42.40;;;;;;4999556;28;20041;-70
2023/04/10 12:34:00;;;;;;;4.55;3.90;;;17.90;38.90;;;;;;5012587;28;20047;-68
2023/04/10 12:36:31;;;;;;;5.30;3.85;;;17.90;39.90;;;;;;5011207;28;20498;-71
2023/04/10 12:39:02;;;;;;;5.00;3.88;;;18.20;41.00;;;;;;5008741;28;20041;-68
2023/04/10 12:41:32;;;;;;;4.90;3.70;;;18.30;38.30;;;;;;5013462;28;20052;-69